Time;durP1;ratioP1;P1;durP2;ratioP2;P2;SDS_P1;SDS_P2;PMS_P1;PMS_P2;Temp;Humidity;BMP_temperature;BMP_pressure;BME280_temperature;BME280_humidity;BME280_pressure;Samples;Min_cycle;Max_cycle;Signal;HPM_P1;HPM_P2
2022/12/31 00:00:08;;;;;;;0.80;0.60;;;13.10;99.90;;;;;;4990152;28;20207;-78
2022/12/31 00:02:37;;;;;;;2.00;0.50;;;13.10;99.90;;;;;;4990014;28;20275;-77
2022/12/31 00:05:03;;;;;;;0.83;0.80;;;13.10;99.90;;;;;;4990071;28;20466;-77
2022/12/31 00:07:28;;;;;;;0.70;0.40;;;13.20;99.90;;;;;;4990270;28;20854;-78
2022/12/31 00:09:54;;;;;;;1.40;0.80;;;13.20;99.90;;;;;;4988547;28;20511;-76
2022/12/31 00:12:19;;;;;;;1.10;0.50;;;13.30;99.90;;;;;;4988808;28;20697;-77
2022/12/31 00:14:45;;;;;;;2.63;1.57;;;13.40;99.90;;;;;;4990144;28;20195;-77
2022/12/31 00:17:11;;;;;;;0.70;0.40;;;13.60;99.90;;;;;;4990397;28;20319;-76
2022/12/31 00:19:36;;;;;;;1.30;0.83;;;13.60;99.90;;;;;;4990919;28;20871;-76
2022/12/31 00:22:02;;;;;;;1.73;1.23;;;13.50;99.90;;;;;;4993673;28;20234;-78
2022/12/31 00:24:29;;;;;;;1.27;0.60;;;13.60;99.90;;;;;;4990619;28;20324;-76
2022/12/31 00:26:55;;;;;;;4.03;1.17;;;13.50;99.90;;;;;;4989246;28;20244;-78
2022/12/31 00:29:21;;;;;;;0.77;0.50;;;13.50;99.90;;;;;;4990130;28;20440;-77
2022/12/31 00:31:47;;;;;;;2.67;0.67;;;13.60;99.90;;;;;;4989972;28;20440;-78
2022/12/31 00:34:12;;;;;;;4.63;1.70;;;13.80;99.90;;;;;;4989975;28;20181;-78
2022/12/31 00:36:38;;;;;;;1.10;0.50;;;13.90;99.90;;;;;;4989965;28;20185;-78
2022/12/31 00:39:07;;;;;;;1.83;1.43;;;14.10;99.90;;;;;;4990075;28;20212;-77
2022/12/31 00:41:33;;;;;;;1.13;0.63;;;14.10;99.90;;;;;;4989975;28;20487;-77
2022/12/31 00:43:59;;;;;;;2.93;1.97;;;14.10;99.90;;;;;;4988464;28;20797;-78
2022/12/31 00:46:25;;;;;;;1.77;0.90;;;14.10;99.90;;;;;;4989373;28;20479;-77
2022/12/31 00:48:51;;;;;;;3.10;1.60;;;14.20;99.90;;;;;;4971782;28;20436;-77
2022/12/31 00:51:19;;;;;;;15.20;2.10;;;14.20;99.90;;;;;;4989427;28;20420;-78
2022/12/31 00:53:45;;;;;;;1.10;0.70;;;14.30;99.90;;;;;;4989529;28;20471;-77
2022/12/31 00:56:14;;;;;;;0.90;0.50;;;14.20;99.90;;;;;;4990414;28;20423;-78
2022/12/31 00:58:40;;;;;;;0.80;0.40;;;14.30;99.90;;;;;;4975537;28;20200;-78
2022/12/31 01:01:26;;;;;;;0.80;0.50;;;14.30;99.90;;;;;;4993086;28;20452;-77
2022/12/31 01:03:54;;;;;;;0.90;0.60;;;14.30;99.90;;;;;;4992699;28;20484;-77
2022/12/31 01:06:21;;;;;;;1.00;0.70;;;14.30;99.90;;;;;;4975043;28;20806;-77
2022/12/31 01:08:50;;;;;;;0.80;0.50;;;14.30;99.90;;;;;;4991169;28;20428;-77
2022/12/31 01:11:22;;;;;;;0.80;0.40;;;14.30;99.90;;;;;;4991625;28;20421;-77
2022/12/31 01:13:58;;;;;;;1.00;0.60;;;14.30;99.90;;;;;;4992648;28;20419;-77
2022/12/31 01:16:36;;;;;;;0.90;0.40;;;14.30;99.90;;;;;;4975151;28;20434;-77
2022/12/31 01:19:05;;;;;;;1.53;0.50;;;14.40;99.90;;;;;;4992529;28;20405;-77
2022/12/31 01:21:32;;;;;;;0.80;0.60;;;14.40;99.90;;;;;;4974760;28;20429;-77
2022/12/31 01:23:58;;;;;;;0.90;0.47;;;14.40;99.90;;;;;;4992453;28;20483;-78
2022/12/31 01:26:25;;;;;;;1.37;0.53;;;14.40;99.90;;;;;;4975366;28;20463;-76
2022/12/31 01:28:50;;;;;;;1.57;0.70;;;14.40;99.90;;;;;;4992638;28;20701;-76
2022/12/31 01:31:18;;;;;;;1.17;0.50;;;14.30;99.90;;;;;;4991364;28;20797;-77
2022/12/31 01:33:44;;;;;;;2.63;0.87;;;14.30;99.90;;;;;;4975385;28;20197;-77
2022/12/31 01:36:22;;;;;;;0.70;0.40;;;14.30;99.90;;;;;;4992769;28;20457;-77
2022/12/31 01:38:48;;;;;;;1.27;0.50;;;14.20;99.90;;;;;;4975132;28;20428;-78
2022/12/31 01:41:17;;;;;;;0.97;0.57;;;14.40;99.90;;;;;;4992772;28;20914;-77
2022/12/31 01:44:11;;;;;;;1.37;0.70;;;14.40;99.90;;;;;;4992996;28;20212;-77
2022/12/31 01:46:46;;;;;;;1.93;0.40;;;14.40;99.90;;;;;;4977744;28;20503;-77
2022/12/31 01:49:31;;;;;;;0.80;0.40;;;14.30;99.90;;;;;;4975212;28;20493;-76
2022/12/31 01:52:16;;;;;;;0.80;0.50;;;14.50;99.90;;;;;;4975093;28;20435;-77
2022/12/31 01:54:48;;;;;;;0.70;0.40;;;14.30;99.90;;;;;;4992749;28;20421;-77
2022/12/31 01:57:15;;;;;;;2.40;0.47;;;14.30;99.90;;;;;;4992997;28;20443;-77
2022/12/31 01:59:42;;;;;;;0.77;0.47;;;14.40;99.90;;;;;;4974739;28;20444;-76
2022/12/31 02:02:07;;;;;;;1.93;0.50;;;14.40;99.90;;;;;;4974511;28;20425;-77
2022/12/31 02:04:33;;;;;;;2.70;0.70;;;14.40;99.90;;;;;;4990357;28;20428;-75
2022/12/31 02:07:01;;;;;;;1.20;0.50;;;14.40;99.90;;;;;;4991409;28;20182;-76
2022/12/31 02:09:28;;;;;;;1.43;0.60;;;14.40;99.90;;;;;;4974087;28;20200;-76
2022/12/31 02:11:53;;;;;;;0.83;0.60;;;14.40;99.90;;;;;;4991421;28;20488;-76
2022/12/31 02:14:24;;;;;;;1.40;0.83;;;14.50;99.90;;;;;;4991357;28;20507;-77
2022/12/31 02:17:08;;;;;;;0.70;0.50;;;14.50;99.90;;;;;;4991653;28;20173;-77
2022/12/31 02:19:46;;;;;;;0.80;0.50;;;14.40;99.90;;;;;;4991948;28;20429;-77
2022/12/31 02:22:27;;;;;;;0.80;0.50;;;14.50;99.90;;;;;;4993204;28;20469;-78
2022/12/31 02:25:13;;;;;;;1.60;0.50;;;14.40;99.90;;;;;;4992079;28;21022;-77
2022/12/31 02:28:00;;;;;;;1.27;0.60;;;14.40;99.90;;;;;;4992968;28;20404;-77
2022/12/31 02:30:31;;;;;;;0.80;0.47;;;14.40;99.90;;;;;;4990457;28;20972;-77
2022/12/31 02:33:15;;;;;;;0.90;0.60;;;14.50;99.90;;;;;;4973938;28;20456;-77
2022/12/31 02:35:41;;;;;;;2.60;0.57;;;14.40;99.90;;;;;;4973989;28;20503;-77
2022/12/31 02:38:15;;;;;;;1.07;0.60;;;14.40;99.90;;;;;;4990157;28;20520;-77
2022/12/31 02:40:42;;;;;;;2.80;1.10;;;14.50;99.90;;;;;;4974582;28;20213;-76
2022/12/31 02:43:07;;;;;;;1.23;0.63;;;14.50;99.90;;;;;;4973824;28;20437;-76
2022/12/31 02:45:46;;;;;;;1.83;0.53;;;14.60;99.90;;;;;;4991154;28;20480;-76
2022/12/31 02:48:33;;;;;;;1.00;0.50;;;14.50;99.90;;;;;;4990665;28;20198;-76
2022/12/31 02:51:06;;;;;;;2.30;0.60;;;14.50;99.90;;;;;;4990692;28;20963;-76
2022/12/31 02:53:42;;;;;;;1.00;0.47;;;14.70;99.90;;;;;;4989625;28;20784;-76
2022/12/31 02:56:18;;;;;;;0.80;0.50;;;14.70;99.90;;;;;;4990433;28;21127;-77
2022/12/31 03:02:12;;;;;;;0.70;0.40;;;14.60;99.90;;;;;;4992476;28;20480;-78
2022/12/31 03:04:44;;;;;;;0.90;0.50;;;14.60;99.90;;;;;;4991702;28;20409;-78
2022/12/31 03:07:13;;;;;;;0.90;0.50;;;14.70;99.90;;;;;;4991477;28;20413;-78
2022/12/31 03:09:39;;;;;;;1.90;1.13;;;14.70;99.90;;;;;;4991885;28;20437;-78
2022/12/31 03:14:52;;;;;;;1.10;0.60;;;14.90;99.90;;;;;;4990805;28;20431;-78
2022/12/31 03:17:18;;;;;;;0.90;0.50;;;15.00;99.90;;;;;;4990063;28;20448;-76
2022/12/31 03:22:29;;;;;;;0.90;0.50;;;15.10;99.90;;;;;;4990400;28;20173;-76
2022/12/31 03:27:46;;;;;;;0.77;0.50;;;15.10;99.90;;;;;;4990091;28;20401;-76
2022/12/31 03:30:15;;;;;;;0.90;0.50;;;15.20;99.90;;;;;;4988556;28;20441;-77
2022/12/31 03:32:40;;;;;;;0.90;0.60;;;15.20;99.90;;;;;;4988379;28;20726;-78
2022/12/31 03:35:07;;;;;;;0.80;0.50;;;15.20;99.90;;;;;;4988547;28;20444;-77
2022/12/31 03:37:33;;;;;;;0.90;0.50;;;15.10;99.90;;;;;;4989720;28;20910;-78
2022/12/31 03:39:58;;;;;;;3.23;0.50;;;15.10;99.90;;;;;;4989930;28;20456;-78
2022/12/31 03:42:24;;;;;;;0.80;0.40;;;15.20;99.90;;;;;;4989798;28;20628;-77
2022/12/31 03:44:52;;;;;;;0.70;0.40;;;15.20;99.90;;;;;;4990243;28;20208;-77
2022/12/31 03:47:18;;;;;;;2.20;0.63;;;15.30;99.90;;;;;;4989795;28;20182;-78
2022/12/31 03:49:43;;;;;;;0.90;0.50;;;15.20;99.90;;;;;;4991974;28;20955;-78
2022/12/31 03:52:09;;;;;;;1.00;0.50;;;15.20;99.90;;;;;;4991768;28;20197;-80
2022/12/31 03:54:34;;;;;;;0.80;0.40;;;15.20;99.90;;;;;;4976195;28;20209;-80
2022/12/31 03:57:00;;;;;;;1.30;0.60;;;15.20;99.90;;;;;;4992303;28;20627;-79
2022/12/31 03:59:25;;;;;;;3.00;0.50;;;15.10;99.90;;;;;;4992339;28;20241;-79
2022/12/31 04:01:51;;;;;;;1.63;0.40;;;15.10;99.90;;;;;;4991154;28;20285;-78
2022/12/31 04:04:17;;;;;;;2.10;0.57;;;15.10;99.90;;;;;;4990818;28;20193;-78
2022/12/31 04:06:42;;;;;;;1.90;0.47;;;15.10;99.90;;;;;;4990347;28;20222;-80
2022/12/31 04:09:08;;;;;;;0.90;0.50;;;15.10;99.90;;;;;;4992994;28;20197;-78
2022/12/31 04:11:33;;;;;;;0.70;0.43;;;15.10;99.90;;;;;;4990991;28;20697;-77
2022/12/31 04:13:59;;;;;;;0.90;0.40;;;15.10;99.90;;;;;;4989098;28;20190;-76
2022/12/31 04:16:24;;;;;;;1.27;0.50;;;15.10;99.90;;;;;;4990328;28;20194;-77
2022/12/31 04:18:50;;;;;;;1.00;0.50;;;15.20;99.90;;;;;;4989472;28;20215;-76
2022/12/31 04:21:15;;;;;;;2.50;0.70;;;15.30;99.90;;;;;;4988260;28;20240;-76
2022/12/31 04:23:41;;;;;;;4.50;0.40;;;15.30;99.90;;;;;;4989771;28;20561;-78
2022/12/31 04:26:07;;;;;;;0.80;0.43;;;15.30;99.90;;;;;;4991183;28;20217;-77
2022/12/31 04:28:32;;;;;;;1.07;0.60;;;15.20;99.90;;;;;;4991659;28;20639;-77
2022/12/31 04:30:58;;;;;;;1.50;0.40;;;15.30;99.90;;;;;;4990611;28;20202;-78
2022/12/31 04:33:23;;;;;;;1.10;0.40;;;15.30;99.90;;;;;;4992097;28;20205;-77
2022/12/31 04:35:49;;;;;;;2.13;0.40;;;15.40;99.90;;;;;;4992637;28;20185;-77
2022/12/31 04:38:15;;;;;;;1.47;0.40;;;15.40;99.90;;;;;;4992972;28;20210;-78
2022/12/31 04:41:15;;;;;;;2.70;1.00;;;15.30;99.90;;;;;;4994390;28;20204;-78
2022/12/31 04:43:26;;;;;;;0.90;0.57;;;15.30;99.90;;;;;;4993764;28;20232;-78
2022/12/31 04:45:51;;;;;;;1.70;0.83;;;15.30;99.90;;;;;;4992152;28;20500;-78
2022/12/31 04:48:17;;;;;;;3.53;0.40;;;15.20;99.90;;;;;;4993424;28;20186;-77
2022/12/31 04:50:44;;;;;;;0.70;0.40;;;15.20;99.90;;;;;;4992589;28;20269;-77
2022/12/31 04:53:10;;;;;;;1.03;0.40;;;15.20;99.90;;;;;;4992640;28;20185;-78
2022/12/31 04:55:35;;;;;;;0.80;0.40;;;15.30;99.90;;;;;;4991014;28;20441;-77
2022/12/31 04:58:01;;;;;;;0.80;0.40;;;15.20;99.90;;;;;;4992524;28;20191;-77
2022/12/31 05:00:26;;;;;;;0.70;0.40;;;15.20;99.90;;;;;;4992309;28;20597;-77
2022/12/31 05:02:52;;;;;;;0.70;0.40;;;15.10;99.90;;;;;;4975047;28;20201;-77
2022/12/31 05:05:18;;;;;;;0.80;0.50;;;15.10;99.90;;;;;;4992267;28;20244;-77
2022/12/31 05:07:43;;;;;;;0.80;0.50;;;15.00;99.90;;;;;;4992735;28;21088;-78
2022/12/31 05:10:09;;;;;;;0.90;0.50;;;15.00;99.90;;;;;;4992565;28;20244;-77
2022/12/31 05:12:34;;;;;;;2.30;0.40;;;14.90;99.90;;;;;;4991241;28;20240;-78
2022/12/31 05:15:00;;;;;;;2.20;0.40;;;14.90;99.90;;;;;;4990992;28;20228;-77
2022/12/31 05:17:25;;;;;;;0.70;0.50;;;14.80;99.90;;;;;;4975536;28;20204;-77
2022/12/31 05:19:51;;;;;;;0.70;0.40;;;14.80;99.90;;;;;;4992073;28;20213;-79
2022/12/31 05:22:28;;;;;;;3.27;0.40;;;14.80;99.90;;;;;;4992529;28;20209;-78
2022/12/31 05:24:58;;;;;;;0.90;0.40;;;14.70;99.90;;;;;;4993158;28;20214;-78
2022/12/31 05:27:24;;;;;;;0.93;0.50;;;14.60;99.90;;;;;;4975533;28;20429;-77
2022/12/31 05:29:49;;;;;;;2.00;0.57;;;14.60;99.90;;;;;;4992738;28;20524;-78
2022/12/31 05:32:15;;;;;;;4.73;0.50;;;14.60;99.90;;;;;;4975017;28;20433;-78
2022/12/31 05:34:42;;;;;;;1.03;0.43;;;14.50;99.90;;;;;;4975453;28;20224;-78
2022/12/31 05:37:07;;;;;;;0.80;0.50;;;14.50;99.90;;;;;;4993183;28;20472;-79
2022/12/31 05:39:33;;;;;;;1.53;0.50;;;14.40;99.90;;;;;;4992954;28;20431;-78
2022/12/31 05:41:59;;;;;;;0.80;0.50;;;14.40;99.90;;;;;;4990481;28;20189;-77
2022/12/31 05:44:24;;;;;;;0.90;0.50;;;14.30;99.90;;;;;;4974031;28;20184;-76
2022/12/31 05:46:50;;;;;;;1.33;0.50;;;14.30;99.90;;;;;;4990533;28;20226;-77
2022/12/31 05:49:15;;;;;;;1.53;0.50;;;14.30;99.90;;;;;;4991482;28;20205;-76
2022/12/31 05:51:41;;;;;;;0.70;0.40;;;14.30;99.90;;;;;;4991682;28;20192;-76
2022/12/31 05:54:07;;;;;;;0.70;0.50;;;14.40;99.90;;;;;;4991460;28;20670;-76
2022/12/31 05:56:32;;;;;;;0.70;0.40;;;14.30;99.90;;;;;;4991623;28;20189;-76
2022/12/31 05:58:58;;;;;;;0.80;0.40;;;14.30;99.90;;;;;;4991461;28;20216;-76
2022/12/31 06:01:23;;;;;;;0.70;0.50;;;14.10;99.90;;;;;;4991415;28;20209;-77
2022/12/31 06:03:49;;;;;;;0.70;0.40;;;14.30;99.90;;;;;;4991450;28;20192;-76
2022/12/31 06:06:15;;;;;;;1.03;0.47;;;14.20;99.90;;;;;;4990334;28;20209;-77
2022/12/31 06:08:40;;;;;;;0.70;0.40;;;14.20;99.90;;;;;;4991587;28;20978;-77
2022/12/31 06:11:06;;;;;;;3.00;0.50;;;14.20;99.90;;;;;;4991792;28;20269;-77
2022/12/31 06:13:32;;;;;;;0.70;0.50;;;14.20;99.90;;;;;;4991749;28;20178;-76
2022/12/31 06:16:03;;;;;;;0.80;0.50;;;14.20;99.90;;;;;;4990353;28;20181;-78
2022/12/31 06:18:28;;;;;;;0.87;0.53;;;14.20;99.90;;;;;;4991495;28;20191;-77
2022/12/31 06:20:57;;;;;;;2.90;0.40;;;14.10;99.90;;;;;;4991552;28;20441;-75
2022/12/31 06:23:22;;;;;;;0.90;0.50;;;14.20;99.90;;;;;;4991514;28;20185;-76
2022/12/31 06:25:48;;;;;;;1.20;0.60;;;14.20;99.90;;;;;;4990356;28;20466;-75
2022/12/31 06:28:14;;;;;;;1.50;0.70;;;14.20;99.90;;;;;;4991818;28;20177;-77
2022/12/31 06:30:40;;;;;;;0.97;0.50;;;14.10;99.90;;;;;;4991654;28;20503;-77
2022/12/31 06:33:05;;;;;;;2.30;0.60;;;14.00;99.90;;;;;;4992664;28;20237;-77
2022/12/31 06:35:31;;;;;;;0.80;0.50;;;14.00;99.90;;;;;;4992032;28;20704;-79
2022/12/31 06:37:56;;;;;;;1.63;0.50;;;14.00;99.90;;;;;;4993649;28;20180;-79
2022/12/31 06:40:25;;;;;;;0.80;0.50;;;14.00;99.90;;;;;;4991946;28;20210;-79
2022/12/31 06:42:52;;;;;;;1.20;0.50;;;13.90;99.90;;;;;;4991347;28;20184;-76
2022/12/31 06:45:18;;;;;;;0.80;0.50;;;13.90;99.90;;;;;;4991011;28;20464;-76
2022/12/31 06:47:43;;;;;;;1.10;0.50;;;14.00;99.90;;;;;;4991184;28;20419;-76
2022/12/31 06:50:09;;;;;;;2.70;0.53;;;14.00;99.90;;;;;;4990786;28;20437;-76
2022/12/31 06:52:35;;;;;;;2.10;0.43;;;14.00;99.90;;;;;;4990838;28;20220;-76
2022/12/31 06:55:01;;;;;;;0.90;0.53;;;14.10;99.90;;;;;;4989740;28;20185;-76
2022/12/31 06:57:27;;;;;;;0.70;0.40;;;14.10;99.90;;;;;;4989075;28;20855;-76
2022/12/31 06:59:53;;;;;;;0.90;0.63;;;14.10;99.90;;;;;;4988682;28;20455;-76
2022/12/31 07:02:35;;;;;;;0.83;0.43;;;14.10;99.90;;;;;;4990351;28;20575;-76
2022/12/31 07:05:19;;;;;;;0.90;0.60;;;14.10;99.90;;;;;;4990375;28;20476;-75
2022/12/31 07:07:48;;;;;;;0.87;0.60;;;14.20;99.90;;;;;;4990143;28;20414;-76
2022/12/31 07:10:34;;;;;;;0.80;0.47;;;14.20;99.90;;;;;;4990380;28;20444;-76
2022/12/31 07:13:38;;;;;;;0.80;0.50;;;14.20;99.90;;;;;;4990464;28;20769;-75
2022/12/31 07:16:28;;;;;;;1.07;0.50;;;14.20;99.90;;;;;;4967842;28;20417;-75
2022/12/31 07:19:02;;;;;;;1.40;0.43;;;14.20;99.90;;;;;;4989990;28;20423;-75
2022/12/31 07:21:37;;;;;;;0.70;0.50;;;14.30;99.90;;;;;;4988403;28;20535;-76
2022/12/31 07:24:06;;;;;;;1.07;0.50;;;14.30;99.90;;;;;;4988670;28;20430;-75
2022/12/31 07:26:59;;;;;;;1.33;0.40;;;14.30;99.90;;;;;;4989712;28;20484;-75
2022/12/31 07:29:43;;;;;;;1.53;0.50;;;14.30;99.90;;;;;;4990072;28;20933;-75
2022/12/31 07:32:35;;;;;;;1.47;0.50;;;14.30;99.90;;;;;;4971999;28;20444;-75
2022/12/31 07:35:13;;;;;;;0.80;0.50;;;14.40;99.90;;;;;;4973935;28;20440;-75
2022/12/31 07:38:01;;;;;;;0.90;0.50;;;14.40;99.90;;;;;;4988437;28;20451;-75
2022/12/31 07:40:53;;;;;;;1.20;0.50;;;14.30;99.90;;;;;;4989780;28;20472;-74
2022/12/31 07:43:27;;;;;;;0.80;0.60;;;14.40;99.90;;;;;;4989833;28;20925;-75
2022/12/31 07:46:05;;;;;;;1.40;1.10;;;14.40;99.90;;;;;;4989786;28;20463;-75
2022/12/31 07:48:31;;;;;;;4.50;1.10;;;14.40;99.90;;;;;;4990076;28;20419;-74
2022/12/31 07:50:57;;;;;;;0.80;0.60;;;14.40;99.90;;;;;;4988805;28;20448;-75
2022/12/31 07:53:24;;;;;;;0.90;0.60;;;14.40;99.90;;;;;;4972634;28;20282;-75
2022/12/31 07:55:55;;;;;;;3.47;1.63;;;14.50;99.90;;;;;;4988878;28;20575;-74
2022/12/31 07:58:35;;;;;;;0.80;0.60;;;14.50;99.90;;;;;;4989992;28;20447;-74
2022/12/31 08:01:01;;;;;;;4.30;1.40;;;14.50;99.90;;;;;;4990169;28;20429;-75
2022/12/31 08:03:39;;;;;;;1.00;0.70;;;14.50;99.90;;;;;;4990182;28;20531;-75
2022/12/31 08:06:28;;;;;;;2.10;0.50;;;14.50;99.90;;;;;;4992649;28;20474;-74
2022/12/31 08:09:31;;;;;;;0.90;0.57;;;14.50;99.90;;;;;;4994005;28;20428;-75
2022/12/31 08:11:59;;;;;;;1.10;0.70;;;14.50;99.90;;;;;;4991396;28;20895;-75
2022/12/31 08:14:26;;;;;;;1.00;0.60;;;14.60;99.90;;;;;;4993693;28;20488;-75
2022/12/31 08:16:53;;;;;;;0.80;0.50;;;15.20;99.90;;;;;;4993550;28;20435;-74
2022/12/31 08:19:24;;;;;;;1.20;0.50;;;16.00;99.90;;;;;;4993701;28;20448;-75
2022/12/31 08:22:20;;;;;;;1.50;0.50;;;16.00;99.90;;;;;;4975712;28;20461;-75
2022/12/31 08:24:53;;;;;;;1.10;0.60;;;16.20;99.90;;;;;;4993095;28;20420;-74
2022/12/31 08:27:40;;;;;;;2.10;1.30;;;16.10;99.90;;;;;;4975838;28;20429;-74
2022/12/31 08:30:20;;;;;;;0.80;0.47;;;16.00;99.90;;;;;;4993297;28;20449;-77
2022/12/31 08:33:20;;;;;;;0.80;0.53;;;15.70;99.90;;;;;;4993082;28;20500;-75
2022/12/31 08:36:12;;;;;;;1.40;0.90;;;15.60;99.90;;;;;;4976917;28;20483;-75
2022/12/31 08:38:46;;;;;;;2.47;1.47;;;15.50;99.90;;;;;;4993534;28;21109;-75
2022/12/31 08:41:36;;;;;;;1.10;0.90;;;15.30;99.90;;;;;;4993147;28;20412;-75
2022/12/31 08:44:27;;;;;;;1.00;0.67;;;15.30;99.90;;;;;;4993117;28;20421;-75
2022/12/31 08:46:52;;;;;;;2.50;0.73;;;15.30;99.90;;;;;;4975144;28;20844;-75
2022/12/31 08:49:18;;;;;;;1.47;0.70;;;15.40;99.90;;;;;;4992806;28;20446;-75
2022/12/31 08:51:44;;;;;;;1.67;0.67;;;15.40;99.90;;;;;;4992874;28;20185;-75
2022/12/31 08:54:11;;;;;;;1.70;0.77;;;15.40;99.90;;;;;;4992905;28;20989;-75
2022/12/31 08:56:58;;;;;;;2.00;0.50;;;15.40;99.90;;;;;;4992722;28;20425;-75
2022/12/31 08:59:32;;;;;;;1.53;0.57;;;15.40;99.90;;;;;;4992527;28;20539;-75
2022/12/31 09:02:24;;;;;;;0.80;0.60;;;15.50;99.90;;;;;;4992359;28;20405;-75
2022/12/31 09:05:15;;;;;;;0.97;0.50;;;15.90;99.90;;;;;;4974496;28;20433;-75
2022/12/31 09:07:54;;;;;;;0.93;0.60;;;16.20;99.90;;;;;;4974479;28;20428;-75
2022/12/31 09:10:47;;;;;;;1.00;0.43;;;16.20;99.90;;;;;;4992232;28;20457;-75
2022/12/31 09:13:18;;;;;;;1.33;0.50;;;16.30;99.90;;;;;;4986334;28;20431;-75
2022/12/31 09:15:52;;;;;;;1.00;0.60;;;16.30;99.90;;;;;;4992087;28;20516;-75
2022/12/31 09:18:18;;;;;;;2.73;0.60;;;16.30;99.90;;;;;;4973688;28;20426;-76
2022/12/31 09:20:44;;;;;;;1.20;0.60;;;16.40;99.90;;;;;;4990798;28;20802;-76
2022/12/31 09:23:11;;;;;;;1.10;0.70;;;16.30;99.90;;;;;;4992106;28;20550;-75
2022/12/31 09:25:54;;;;;;;1.20;0.70;;;16.30;99.90;;;;;;4992289;28;20227;-76
2022/12/31 09:28:26;;;;;;;0.90;0.60;;;16.20;99.90;;;;;;4974435;28;20806;-76
2022/12/31 09:31:04;;;;;;;2.27;0.60;;;16.40;99.90;;;;;;4990380;28;20443;-76
2022/12/31 09:33:51;;;;;;;1.10;0.50;;;16.40;99.90;;;;;;4991661;28;20444;-76
2022/12/31 09:36:49;;;;;;;1.10;0.70;;;16.60;99.90;;;;;;4974260;28;20440;-76
2022/12/31 09:39:29;;;;;;;3.77;1.00;;;17.40;99.90;;;;;;4972834;28;21013;-76
2022/12/31 09:42:36;;;;;;;6.10;0.80;;;18.80;99.90;;;;;;4974071;28;20427;-76
2022/12/31 09:45:29;;;;;;;5.23;0.70;;;19.80;99.20;;;;;;4973977;28;20504;-76
2022/12/31 09:48:34;;;;;;;1.30;0.90;;;20.70;97.20;;;;;;4991557;28;21053;-76
2022/12/31 09:51:24;;;;;;;0.90;0.43;;;21.60;94.10;;;;;;4991480;28;20440;-76
2022/12/31 09:54:11;;;;;;;1.20;0.60;;;22.80;91.30;;;;;;4991528;28;20417;-76
2022/12/31 09:57:14;;;;;;;2.23;1.00;;;23.90;89.80;;;;;;4991393;28;20482;-76
2022/12/31 09:59:53;;;;;;;1.33;0.80;;;25.20;82.80;;;;;;4991966;28;20558;-77
2022/12/31 10:02:54;;;;;;;1.27;0.90;;;26.30;77.40;;;;;;4991967;28;20447;-76
2022/12/31 10:05:23;;;;;;;4.20;1.03;;;26.40;74.10;;;;;;4991886;28;20976;-77
2022/12/31 10:08:16;;;;;;;1.40;1.23;;;27.40;72.90;;;;;;4991197;28;20831;-76
2022/12/31 10:10:50;;;;;;;1.50;0.80;;;28.20;66.80;;;;;;4992613;28;20459;-77
2022/12/31 10:13:46;;;;;;;4.97;0.90;;;28.00;66.20;;;;;;4992692;28;20397;-76
2022/12/31 10:16:56;;;;;;;1.00;0.90;;;28.30;65.40;;;;;;4987185;28;20417;-76
2022/12/31 10:19:40;;;;;;;0.90;0.80;;;28.70;62.60;;;;;;4959963;28;20514;-76
2022/12/31 10:22:05;;;;;;;1.30;0.60;;;29.00;58.90;;;;;;4977465;28;20486;-75
2022/12/31 10:24:37;;;;;;;1.20;0.97;;;29.40;59.50;;;;;;4992661;28;20420;-77
2022/12/31 10:27:17;;;;;;;2.30;0.60;;;29.20;58.30;;;;;;4992344;28;20245;-77
2022/12/31 10:29:58;;;;;;;0.90;0.60;;;29.60;58.60;;;;;;4999664;28;20431;-75
2022/12/31 10:32:41;;;;;;;1.10;0.67;;;29.60;56.70;;;;;;5014493;28;20528;-77
2022/12/31 10:35:12;;;;;;;2.23;1.70;;;28.80;55.90;;;;;;5013037;28;20859;-75
2022/12/31 10:37:55;;;;;;;3.07;0.70;;;29.00;56.90;;;;;;5005570;28;20432;-76
2022/12/31 10:41:01;;;;;;;2.47;1.00;;;29.00;55.10;;;;;;4995333;28;20441;-77
2022/12/31 10:44:00;;;;;;;1.90;0.80;;;28.90;57.30;;;;;;4994548;28;20965;-77
2022/12/31 10:47:03;;;;;;;0.80;0.50;;;29.30;55.00;;;;;;4991331;28;20552;-77
2022/12/31 10:49:54;;;;;;;2.00;0.60;;;29.70;53.90;;;;;;4989319;28;20444;-79
2022/12/31 10:52:49;;;;;;;1.07;0.83;;;29.30;54.90;;;;;;4991708;28;20441;-77
2022/12/31 10:55:40;;;;;;;1.53;0.80;;;29.60;53.10;;;;;;4991157;28;20969;-77
2022/12/31 10:58:24;;;;;;;1.80;0.83;;;29.30;52.20;;;;;;4991576;28;20467;-76
2022/12/31 11:01:12;;;;;;;3.50;0.70;;;28.20;52.50;;;;;;4975897;28;21155;-79
2022/12/31 11:04:15;;;;;;;0.83;0.50;;;28.50;54.90;;;;;;4991381;28;20421;-76
2022/12/31 11:06:58;;;;;;;1.47;0.63;;;28.60;53.50;;;;;;4973026;28;20918;-77
2022/12/31 11:09:46;;;;;;;1.50;0.50;;;29.00;53.90;;;;;;4990051;28;20449;-77
2022/12/31 11:12:40;;;;;;;1.33;0.80;;;29.00;53.20;;;;;;4973452;28;20429;-77
2022/12/31 11:15:21;;;;;;;0.90;0.60;;;29.00;52.50;;;;;;4991391;28;20424;-77
2022/12/31 11:18:29;;;;;;;1.13;0.83;;;27.10;54.30;;;;;;4988305;28;20490;-77
2022/12/31 11:21:07;;;;;;;1.30;0.70;;;27.30;52.70;;;;;;4990848;28;20535;-77
2022/12/31 11:23:57;;;;;;;1.63;0.50;;;28.50;54.60;;;;;;4991544;28;20977;-75
2022/12/31 11:26:56;;;;;;;1.97;0.60;;;27.90;54.10;;;;;;4990083;28;20469;-77
2022/12/31 11:29:41;;;;;;;1.20;0.50;;;27.40;54.70;;;;;;4992526;28;20906;-77
2022/12/31 11:32:17;;;;;;;0.77;0.53;;;27.20;55.00;;;;;;4993553;28;20488;-77
2022/12/31 11:35:10;;;;;;;1.60;0.50;;;25.40;56.30;;;;;;4992508;28;20921;-77
2022/12/31 11:37:49;;;;;;;1.53;0.50;;;25.50;57.80;;;;;;4992608;28;20929;-77
2022/12/31 11:40:29;;;;;;;1.10;0.67;;;24.50;57.40;;;;;;4992371;28;20475;-78
2022/12/31 11:43:03;;;;;;;1.30;0.77;;;24.30;58.40;;;;;;4990316;28;20465;-76
2022/12/31 11:46:00;;;;;;;1.10;0.60;;;24.00;58.80;;;;;;4989461;28;20503;-75
2022/12/31 11:48:35;;;;;;;2.63;0.70;;;24.60;60.00;;;;;;4989388;28;20416;-75
2022/12/31 11:51:26;;;;;;;0.80;0.50;;;25.20;58.60;;;;;;4989456;28;20502;-75
2022/12/31 11:54:18;;;;;;;2.10;0.60;;;25.20;58.90;;;;;;4989501;28;20420;-76
2022/12/31 11:56:58;;;;;;;5.87;1.10;;;24.40;58.40;;;;;;4989682;28;21087;-75
2022/12/31 11:59:24;;;;;;;0.90;0.60;;;24.10;60.50;;;;;;4989761;28;20433;-76
2022/12/31 12:01:59;;;;;;;0.90;0.70;;;23.90;59.70;;;;;;4988631;28;20502;-77
2022/12/31 12:04:25;;;;;;;1.00;0.60;;;23.60;62.00;;;;;;4991984;28;20198;-76
2022/12/31 12:06:51;;;;;;;1.00;0.80;;;23.30;61.00;;;;;;4987853;28;20837;-76
2022/12/31 12:09:27;;;;;;;0.90;0.60;;;23.00;62.70;;;;;;4989067;28;20203;-76
2022/12/31 12:12:03;;;;;;;2.60;0.40;;;22.70;62.40;;;;;;4989209;28;20519;-77
2022/12/31 12:14:39;;;;;;;2.40;0.50;;;22.40;64.90;;;;;;4972895;28;21219;-77
2022/12/31 12:17:16;;;;;;;1.60;0.70;;;22.20;65.70;;;;;;4989951;28;20424;-75
2022/12/31 12:19:46;;;;;;;1.20;0.60;;;21.70;64.70;;;;;;4973075;28;20837;-78
2022/12/31 12:22:18;;;;;;;2.03;0.67;;;21.50;65.70;;;;;;4972402;28;20435;-76
2022/12/31 12:25:02;;;;;;;1.83;0.60;;;21.20;68.20;;;;;;4989446;28;20438;-76
2022/12/31 12:27:31;;;;;;;1.00;0.50;;;20.90;69.10;;;;;;4971798;28;20497;-77
2022/12/31 12:29:58;;;;;;;1.00;0.60;;;20.70;69.80;;;;;;4989564;28;20463;-76
2022/12/31 12:32:25;;;;;;;0.90;0.47;;;20.50;70.00;;;;;;4972661;28;20845;-77
2022/12/31 12:34:52;;;;;;;1.50;0.63;;;20.40;69.70;;;;;;4990297;28;20439;-77
2022/12/31 12:37:23;;;;;;;1.10;0.60;;;20.20;71.60;;;;;;4990723;28;20491;-77
2022/12/31 12:40:20;;;;;;;1.20;0.77;;;20.20;71.80;;;;;;4989883;28;20552;-78
2022/12/31 12:42:47;;;;;;;1.57;0.60;;;20.10;73.20;;;;;;4988975;28;20494;-76
2022/12/31 12:45:19;;;;;;;1.73;0.70;;;20.20;73.80;;;;;;4994912;28;20556;-78
2022/12/31 12:47:49;;;;;;;0.80;0.50;;;20.10;73.90;;;;;;4993940;28;20933;-78
2022/12/31 12:50:19;;;;;;;1.83;0.50;;;20.00;73.40;;;;;;4977880;28;20441;-78
2022/12/31 12:53:04;;;;;;;0.80;0.47;;;20.00;72.60;;;;;;4994024;28;20523;-77
2022/12/31 12:55:35;;;;;;;0.90;0.50;;;19.90;72.60;;;;;;4975477;28;20435;-77
2022/12/31 12:58:30;;;;;;;0.80;0.50;;;19.90;72.90;;;;;;4992565;28;20406;-76
2022/12/31 13:01:01;;;;;;;0.80;0.50;;;19.90;74.50;;;;;;4993257;28;20612;-75
2022/12/31 13:03:36;;;;;;;1.27;0.60;;;19.80;73.90;;;;;;4993461;28;20984;-75
2022/12/31 13:06:43;;;;;;;1.63;0.70;;;19.80;75.50;;;;;;4993179;28;20459;-76
2022/12/31 13:09:46;;;;;;;1.43;0.90;;;19.70;74.60;;;;;;4985873;28;20471;-77
2022/12/31 13:12:31;;;;;;;2.77;0.53;;;19.60;75.40;;;;;;4993689;28;20481;-78
2022/12/31 13:15:10;;;;;;;1.10;0.60;;;19.70;75.50;;;;;;4976389;28;20417;-80
2022/12/31 13:17:54;;;;;;;1.20;0.40;;;19.70;77.20;;;;;;4993773;28;20892;-80
2022/12/31 13:20:33;;;;;;;0.83;0.57;;;19.60;76.60;;;;;;4993718;28;20497;-79
2022/12/31 13:23:36;;;;;;;0.90;0.60;;;19.50;76.70;;;;;;4993480;28;20526;-79
2022/12/31 13:26:01;;;;;;;1.73;0.50;;;19.40;76.40;;;;;;4971825;28;20468;-76
2022/12/31 13:28:29;;;;;;;0.80;0.50;;;19.40;76.90;;;;;;4992419;28;20431;-76
2022/12/31 13:31:00;;;;;;;1.00;0.43;;;19.30;76.70;;;;;;4992246;28;20207;-76
2022/12/31 13:33:33;;;;;;;1.57;0.50;;;19.30;76.40;;;;;;4992293;28;20443;-76
2022/12/31 13:36:06;;;;;;;0.80;0.50;;;19.20;77.10;;;;;;4992080;28;20429;-76